Terminal Aerodrome Forecast
Issued by NWS

Home | Current Version | Previous Version | Text Only | Print | Product List | Glossary On
Versions: 1 2 3 4 5 6 7 8 9 10 11 12 13 14 15
000
FTUS45 KGJT 201739
TAFASE
TAF
KASE 201739Z 2018/2118 36005KT P6SM SCT070
     FM201900 32007KT P6SM VCTS BKN070CB
     FM202300 17010G20KT P6SM VCTS SCT050 OVC070CB
     FM210200 13007KT P6SM VCTS OVC070CB
     FM210600 19004KT P6SM BKN070 BKN100
     FM211500 36005KT P6SM SCT070 BKN150=

USA.gov is the U.S. government's official web portal to all federal, state and local government web resources and services.